Time;durP1;ratioP1;P1;durP2;ratioP2;P2;SDS_P1;SDS_P2;PMS_P1;PMS_P2;Temp;Humidity;BMP_temperature;BMP_pressure;BME280_temperature;BME280_humidity;BME280_pressure;Samples;Min_cycle;Max_cycle;Signal;HPM_P1;HPM_P2
2023/01/05 00:00:20;;;;;;;;;;;9.90;99.90;;;;;;5133119;27;19923;-44
2023/01/05 00:02:46;;;;;;;;;;;9.90;99.90;;;;;;5133114;27;20332;-43
2023/01/05 00:05:11;;;;;;;;;;;9.90;99.90;;;;;;5133589;27;19914;-44
2023/01/05 00:07:37;;;;;;;;;;;9.90;99.90;;;;;;5133271;27;20022;-44
2023/01/05 00:10:02;;;;;;;;;;;9.90;99.90;;;;;;5134905;27;19914;-44
2023/01/05 00:23:24;;;;;;;;;;;9.90;99.90;;;;;;5133940;27;19962;-45
2023/01/05 00:25:50;;;;;;;;;;;9.80;99.90;;;;;;5134785;27;19915;-45
2023/01/05 00:28:15;;;;;;;;;;;9.90;99.90;;;;;;5134032;27;19919;-49
2023/01/05 00:30:42;;;;;;;;;;;9.80;99.90;;;;;;5134476;27;19908;-48
2023/01/05 00:33:11;;;;;;;;;;;9.80;99.90;;;;;;5134124;27;19908;-45
2023/01/05 00:35:37;;;;;;;;;;;9.80;99.90;;;;;;5130385;27;20347;-44
2023/01/05 00:38:03;;;;;;;;;;;9.90;99.90;;;;;;5134556;27;19918;-45
2023/01/05 00:40:28;;;;;;;;;;;9.90;99.90;;;;;;5134256;27;19907;-46
2023/01/05 00:42:54;;;;;;;;;;;9.80;99.90;;;;;;5133496;27;19908;-44
2023/01/05 00:45:20;;;;;;;;;;;9.90;99.90;;;;;;5134127;27;19912;-46
2023/01/05 00:47:46;;;;;;;;;;;9.90;99.90;;;;;;5134200;27;19915;-45
2023/01/05 00:50:13;;;;;;;;;;;9.90;99.90;;;;;;5133273;27;19907;-44
2023/01/05 00:52:38;;;;;;;;;;;9.90;99.90;;;;;;5134047;27;19926;-46
2023/01/05 00:55:04;;;;;;;;;;;9.90;99.90;;;;;;5134271;27;19908;-46
2023/01/05 00:57:30;;;;;;;;;;;10.00;99.90;;;;;;5133267;27;19907;-45
2023/01/05 00:59:55;;;;;;;;;;;10.00;99.90;;;;;;5133912;27;19911;-46
2023/01/05 01:02:20;;;;;;;;;;;10.00;99.90;;;;;;5133702;27;20286;-48
2023/01/05 01:04:46;;;;;;;;;;;10.00;99.90;;;;;;5133206;27;19911;-46
2023/01/05 01:07:11;;;;;;;;;;;10.00;99.90;;;;;;5133847;27;19966;-45
2023/01/05 01:09:37;;;;;;;;;;;10.00;99.90;;;;;;5134077;27;19913;-44
2023/01/05 01:12:03;;;;;;;;;;;10.10;99.90;;;;;;5132831;27;19962;-48
2023/01/05 01:14:29;;;;;;;;;;;10.10;99.90;;;;;;5133981;27;19908;-45
2023/01/05 01:16:54;;;;;;;;;;;10.10;99.90;;;;;;5133730;27;19911;-45
2023/01/05 01:19:21;;;;;;;;;;;10.10;99.90;;;;;;5133085;27;20002;-46
2023/01/05 01:21:47;;;;;;;;;;;10.10;99.90;;;;;;5133641;27;19958;-46
2023/01/05 01:24:16;;;;;;;;;;;10.20;99.90;;;;;;5133300;27;19914;-47
2023/01/05 01:26:42;;;;;;;;;;;10.10;99.90;;;;;;5115095;28;19955;-46
2023/01/05 01:29:07;;;;;;;;;;;10.20;99.90;;;;;;5133680;27;19935;-50
2023/01/05 01:31:34;;;;;;;;;;;10.20;99.90;;;;;;5132858;27;19981;-45
2023/01/05 01:34:00;;;;;;;;;;;10.20;99.90;;;;;;5124312;27;19915;-44
2023/01/05 01:36:25;;;;;;;;;;;10.20;99.90;;;;;;5113181;28;19907;-48
2023/01/05 01:38:51;;;;;;;;;;;10.20;99.90;;;;;;5119258;28;20359;-45
2023/01/05 01:41:16;;;;;;;;;;;10.20;99.90;;;;;;5133330;28;19979;-47
2023/01/05 01:43:46;;;;;;;;;;;10.20;99.90;;;;;;5133496;28;19915;-45
2023/01/05 01:46:13;;;;;;;;;;;10.20;99.90;;;;;;5132756;28;19908;-49
2023/01/05 01:48:40;;;;;;;;;;;10.20;99.90;;;;;;5133120;28;19926;-48
2023/01/05 01:51:09;;;;;;;;;;;10.20;99.90;;;;;;5133507;28;20285;-46
2023/01/05 01:53:40;;;;;;;;;;;10.20;99.90;;;;;;5132548;27;20016;-46
2023/01/05 01:56:07;;;;;;;;;;;10.20;99.90;;;;;;5133479;28;20342;-47
2023/01/05 01:58:33;;;;;;;;;;;10.20;99.90;;;;;;5133153;28;19919;-47
2023/01/05 02:01:02;;;;;;;;;;;10.30;99.90;;;;;;5132854;28;20274;-48
2023/01/05 02:03:28;;;;;;;;;;;10.30;99.90;;;;;;5133414;28;19907;-48
2023/01/05 02:05:53;;;;;;;;;;;10.30;99.90;;;;;;5133529;28;19973;-46
2023/01/05 02:08:24;;;;;;;;;;;10.30;99.90;;;;;;5131941;28;20346;-45
2023/01/05 02:11:02;;;;;;;;;;;10.30;99.90;;;;;;5133466;28;19915;-46
2023/01/05 02:13:36;;;;;;;;;;;10.30;99.90;;;;;;5132920;28;19915;-45
2023/01/05 02:16:34;;;;;;;;;;;10.30;99.90;;;;;;5133165;28;19911;-46
2023/01/05 02:19:18;;;;;;;;;;;10.30;99.90;;;;;;5078240;28;19912;-48
2023/01/05 02:21:43;;;;;;;;;;;10.40;99.90;;;;;;5112084;28;19908;-46
2023/01/05 02:24:28;;;;;;;;;;;10.40;99.90;;;;;;5112656;28;19915;-47
2023/01/05 02:26:53;;;;;;;;;;;10.40;99.90;;;;;;5114426;28;19907;-44
2023/01/05 02:29:42;;;;;;;;;;;10.40;99.90;;;;;;5131375;28;20400;-45
2023/01/05 02:32:11;;;;;;;;;;;10.30;99.90;;;;;;5123203;28;19908;-46
2023/01/05 02:34:51;;;;;;;;;;;10.40;99.90;;;;;;5112163;28;19912;-45
2023/01/05 02:37:23;;;;;;;;;;;10.40;99.90;;;;;;5116901;28;19911;-45
2023/01/05 02:39:55;;;;;;;;;;;10.40;99.90;;;;;;5133158;28;19918;-43
2023/01/05 02:42:22;;;;;;;;;;;10.40;99.90;;;;;;5131792;28;19912;-44
2023/01/05 02:44:47;;;;;;;;;;;10.40;99.90;;;;;;5133664;27;19907;-45
2023/01/05 02:47:26;;;;;;;;;;;10.40;99.90;;;;;;5136290;27;20385;-44
2023/01/05 02:50:04;;;;;;;;;;;10.40;99.90;;;;;;5135976;27;19907;-45
2023/01/05 02:52:41;;;;;;;;;;;10.40;99.90;;;;;;5132912;27;19986;-45
2023/01/05 02:55:09;;;;;;;;;;;10.40;99.90;;;;;;5116016;28;19984;-44
2023/01/05 02:57:51;;;;;;;;;;;10.40;99.90;;;;;;5114655;28;19918;-45
2023/01/05 03:00:17;;;;;;;;;;;10.40;99.90;;;;;;5115999;28;19908;-44
2023/01/05 03:02:44;;;;;;;;;;;10.30;99.90;;;;;;5115386;28;19908;-44
2023/01/05 03:05:12;;;;;;;;;;;10.30;99.90;;;;;;5101249;28;19908;-44
2023/01/05 03:07:39;;;;;;;;;;;10.30;99.90;;;;;;5101230;28;19920;-44
2023/01/05 03:15:35;;;;;;;;;;;10.30;99.90;;;;;;5116041;28;19915;-46
2023/01/05 03:18:09;;;;;;;;;;;10.20;99.90;;;;;;5114392;28;20274;-46
2023/01/05 03:20:36;;;;;;;;;;;10.20;99.90;;;;;;5115683;28;19914;-45
2023/01/05 03:37:54;;;;;;;;;;;10.10;99.90;;;;;;5113872;28;19923;-45
2023/01/05 03:40:31;;;;;;;;;;;10.10;99.90;;;;;;5115061;28;20324;-45
2023/01/05 03:42:56;;;;;;;;;;;10.10;99.90;;;;;;5115194;28;19908;-46
2023/01/05 03:45:23;;;;;;;;;;;10.10;99.90;;;;;;5114569;28;19915;-46
2023/01/05 03:47:49;;;;;;;;;;;10.10;99.90;;;;;;5114471;28;19943;-45
2023/01/05 03:50:14;;;;;;;;;;;10.10;99.90;;;;;;5094470;28;20275;-44
2023/01/05 03:52:40;;;;;;;;;;;10.10;99.90;;;;;;5098426;28;19920;-44
2023/01/05 03:55:06;;;;;;;;;;;10.20;99.90;;;;;;5114909;28;19930;-45
2023/01/05 03:57:31;;;;;;;;;;;10.20;99.90;;;;;;5131044;27;20002;-44
2023/01/05 03:59:56;;;;;;;;;;;10.10;99.90;;;;;;5134665;27;19914;-45
2023/01/05 04:02:22;;;;;;;;;;;10.20;99.90;;;;;;5135331;27;19907;-44
2023/01/05 04:04:47;;;;;;;;;;;10.20;99.90;;;;;;5135491;27;19912;-47
2023/01/05 04:07:13;;;;;;;;;;;10.20;99.90;;;;;;5133477;27;19921;-46
2023/01/05 04:09:38;;;;;;;;;;;10.10;99.90;;;;;;5135131;27;20433;-44
2023/01/05 04:12:04;;;;;;;;;;;10.20;99.90;;;;;;5135092;27;19911;-45
2023/01/05 04:14:29;;;;;;;;;;;10.20;99.90;;;;;;5134478;27;19908;-45
2023/01/05 04:16:55;;;;;;;;;;;10.20;99.90;;;;;;5134721;27;19919;-44
2023/01/05 04:19:20;;;;;;;;;;;10.20;99.90;;;;;;5134707;27;20330;-46
2023/01/05 04:21:46;;;;;;;;;;;10.20;99.90;;;;;;5134225;27;19908;-46
2023/01/05 04:24:11;;;;;;;;;;;10.20;99.90;;;;;;5134259;27;19912;-44
2023/01/05 04:26:38;;;;;;;;;;;10.20;99.90;;;;;;5134488;27;19918;-44
2023/01/05 04:29:04;;;;;;;;;;;10.30;99.90;;;;;;5133497;27;19927;-46
2023/01/05 04:31:29;;;;;;;;;;;10.30;99.90;;;;;;5134836;27;19907;-43
2023/01/05 04:33:55;;;;;;;;;;;10.30;99.90;;;;;;5134732;27;19915;-44
2023/01/05 04:36:20;;;;;;;;;;;10.30;99.90;;;;;;5133452;27;19915;-46
2023/01/05 04:38:46;;;;;;;;;;;10.30;99.90;;;;;;5134655;27;19908;-46
2023/01/05 04:41:11;;;;;;;;;;;10.30;99.90;;;;;;5133946;27;19908;-45
2023/01/05 04:43:37;;;;;;;;;;;10.30;99.90;;;;;;5134284;27;19916;-44
2023/01/05 04:46:02;;;;;;;;;;;10.30;99.90;;;;;;5134181;27;19907;-44
2023/01/05 04:48:30;;;;;;;;;;;10.30;99.90;;;;;;5134057;27;20257;-44
2023/01/05 04:50:56;;;;;;;;;;;10.30;99.90;;;;;;5134240;27;19929;-45
2023/01/05 04:53:22;;;;;;;;;;;10.30;99.90;;;;;;5134007;27;20454;-45
2023/01/05 04:55:48;;;;;;;;;;;10.30;99.90;;;;;;5133433;27;20389;-49
2023/01/05 04:58:13;;;;;;;;;;;10.30;99.90;;;;;;5133972;27;19946;-45
2023/01/05 05:00:38;;;;;;;;;;;10.30;99.90;;;;;;5134267;27;19914;-44
2023/01/05 05:03:04;;;;;;;;;;;10.30;99.90;;;;;;5132182;27;19915;-43
2023/01/05 05:05:32;;;;;;;;;;;10.30;99.90;;;;;;5134677;27;19916;-46
2023/01/05 05:07:57;;;;;;;;;;;10.40;99.90;;;;;;5132064;27;20026;-45
2023/01/05 05:10:23;;;;;;;;;;;10.40;99.90;;;;;;5138320;27;20382;-44
2023/01/05 05:12:48;;;;;;;;;;;10.40;99.90;;;;;;5143322;27;20437;-45
2023/01/05 05:15:14;;;;;;;;;;;10.40;99.90;;;;;;5141387;27;19907;-45
2023/01/05 05:17:39;;;;;;;;;;;10.40;99.90;;;;;;5141750;27;19963;-44
2023/01/05 05:20:05;;;;;;;;;;;10.40;99.90;;;;;;5141640;27;19995;-44
2023/01/05 05:22:31;;;;;;;;;;;10.40;99.90;;;;;;5142727;27;20254;-46
2023/01/05 05:24:56;;;;;;;;;;;10.40;99.90;;;;;;5141573;27;19907;-44
2023/01/05 05:27:21;;;;;;;;;;;10.40;99.90;;;;;;5138321;27;19919;-44
2023/01/05 05:29:47;;;;;;;;;;;10.40;99.90;;;;;;5139157;27;19914;-44
2023/01/05 05:32:12;;;;;;;;;;;10.40;99.90;;;;;;5133092;27;19914;-44
2023/01/05 05:34:38;;;;;;;;;;;10.40;99.90;;;;;;5133819;27;19908;-43
2023/01/05 05:37:03;;;;;;;;;;;10.40;99.90;;;;;;5132809;27;19919;-44
2023/01/05 05:39:29;;;;;;;;;;;10.40;99.90;;;;;;5140653;27;19914;-45
2023/01/05 05:41:54;;;;;;;;;;;10.40;99.90;;;;;;5138945;27;20366;-46
2023/01/05 05:44:20;;;;;;;;;;;10.40;99.90;;;;;;5131119;28;19908;-48
2023/01/05 05:46:45;;;;;;;;;;;10.40;99.90;;;;;;5131061;28;20039;-45
2023/01/05 05:49:12;;;;;;;;;;;10.40;99.90;;;;;;5141309;27;19924;-45
2023/01/05 05:51:37;;;;;;;;;;;10.40;99.90;;;;;;5140437;27;19907;-44
2023/01/05 05:54:03;;;;;;;;;;;10.50;99.90;;;;;;5142118;27;19971;-45
2023/01/05 05:56:28;;;;;;;;;;;10.40;99.90;;;;;;5141422;27;19907;-44
2023/01/05 05:58:54;;;;;;;;;;;10.40;99.90;;;;;;5141114;27;19907;-43
2023/01/05 06:01:19;;;;;;;;;;;10.40;99.90;;;;;;5145059;27;19915;-44
2023/01/05 06:03:45;;;;;;;;;;;10.50;99.90;;;;;;5142150;27;19994;-44
2023/01/05 06:06:10;;;;;;;;;;;10.50;99.90;;;;;;5135902;27;20505;-44
2023/01/05 06:08:36;;;;;;;;;;;10.50;99.90;;;;;;5138124;27;19929;-43
2023/01/05 06:11:01;;;;;;;;;;;10.50;99.90;;;;;;5141319;27;19911;-45
2023/01/05 06:13:27;;;;;;;;;;;10.50;99.90;;;;;;5134068;27;20350;-44
2023/01/05 06:15:52;;;;;;;;;;;10.40;99.90;;;;;;5136333;27;19946;-46
2023/01/05 06:18:18;;;;;;;;;;;10.40;99.90;;;;;;5136740;27;20369;-47
2023/01/05 06:20:43;;;;;;;;;;;10.40;99.90;;;;;;5137100;27;19919;-46
2023/01/05 06:23:09;;;;;;;;;;;10.40;99.90;;;;;;5143704;27;19959;-45
2023/01/05 06:25:34;;;;;;;;;;;10.40;99.90;;;;;;5145118;27;20273;-44
2023/01/05 06:28:00;;;;;;;;;;;10.40;99.90;;;;;;5137574;27;19919;-49
2023/01/05 06:30:25;;;;;;;;;;;10.30;99.90;;;;;;5145816;27;19907;-45
2023/01/05 06:32:51;;;;;;;;;;;10.30;99.90;;;;;;5142062;27;19919;-43
2023/01/05 06:35:16;;;;;;;;;;;10.20;99.90;;;;;;5144347;27;19919;-43
2023/01/05 06:37:42;;;;;;;;;;;10.10;99.90;;;;;;5145264;27;19921;-45
2023/01/05 06:40:10;;;;;;;;;;;10.10;99.90;;;;;;5143920;27;19928;-43
2023/01/05 06:42:36;;;;;;;;;;;10.00;99.90;;;;;;5139033;27;19956;-43
2023/01/05 06:45:02;;;;;;;;;;;10.00;99.90;;;;;;5146311;27;19919;-43
2023/01/05 06:47:27;;;;;;;;;;;10.00;99.90;;;;;;5142830;27;19928;-43
2023/01/05 06:49:53;;;;;;;;;;;9.90;99.90;;;;;;5141482;27;19914;-45
2023/01/05 06:52:18;;;;;;;;;;;9.90;99.90;;;;;;5140528;27;19912;-41
2023/01/05 06:54:43;;;;;;;;;;;9.90;99.90;;;;;;5115217;27;19919;-42
2023/01/05 06:57:10;;;;;;;;;;;9.80;99.90;;;;;;5123740;27;20365;-44
2023/01/05 06:59:35;;;;;;;;;;;9.80;99.90;;;;;;5121219;27;19961;-42
2023/01/05 07:02:01;;;;;;;;;;;9.80;99.90;;;;;;5122692;27;20198;-44
2023/01/05 07:04:26;;;;;;;;;;;9.80;99.90;;;;;;5124962;27;19912;-42
2023/01/05 07:06:52;;;;;;;;;;;9.80;99.90;;;;;;5119518;27;20289;-44
2023/01/05 07:09:17;;;;;;;;;;;9.80;99.90;;;;;;5123202;27;20006;-44
2023/01/05 07:11:43;;;;;;;;;;;9.80;99.90;;;;;;5122729;27;19912;-42
2023/01/05 07:14:09;;;;;;;;;;;9.80;99.90;;;;;;5128974;27;19908;-43
2023/01/05 07:16:34;;;;;;;;;;;9.80;99.90;;;;;;5135377;27;19908;-43
2023/01/05 07:19:00;;;;;;;;;;;9.80;99.90;;;;;;5135993;27;20381;-42
2023/01/05 07:21:25;;;;;;;;;;;9.80;99.90;;;;;;5126761;27;19915;-42
2023/01/05 07:23:51;;;;;;;;;;;9.80;99.90;;;;;;5114601;28;20285;-45
2023/01/05 07:26:16;;;;;;;;;;;9.80;99.90;;;;;;5115436;28;19908;-44
2023/01/05 07:28:42;;;;;;;;;;;9.80;99.90;;;;;;5115395;28;20006;-44
2023/01/05 07:31:07;;;;;;;;;;;9.90;99.90;;;;;;5113845;28;20259;-44
2023/01/05 07:33:34;;;;;;;;;;;9.90;99.90;;;;;;5114840;28;19912;-44
2023/01/05 07:36:00;;;;;;;;;;;9.90;99.90;;;;;;5114952;28;19907;-45
2023/01/05 07:38:26;;;;;;;;;;;9.90;99.90;;;;;;5114464;28;20211;-43
2023/01/05 07:40:51;;;;;;;;;;;9.90;99.90;;;;;;5129928;27;19919;-42
2023/01/05 07:43:17;;;;;;;;;;;9.90;99.90;;;;;;5135733;27;20002;-43
2023/01/05 07:45:42;;;;;;;;;;;9.90;99.90;;;;;;5132161;27;19907;-44
2023/01/05 07:48:08;;;;;;;;;;;9.90;99.90;;;;;;5097615;28;19928;-43
2023/01/05 07:50:34;;;;;;;;;;;9.90;99.90;;;;;;5114767;28;19954;-42
2023/01/05 07:52:59;;;;;;;;;;;9.90;99.90;;;;;;5120009;27;20441;-41
2023/01/05 07:55:25;;;;;;;;;;;10.00;99.90;;;;;;5135195;27;20018;-42
2023/01/05 07:57:50;;;;;;;;;;;10.00;99.90;;;;;;5130734;27;19938;-44
2023/01/05 08:00:16;;;;;;;;;;;10.00;99.90;;;;;;5119192;27;19912;-43
2023/01/05 08:02:41;;;;;;;;;;;10.00;99.90;;;;;;5133016;27;20388;-45
2023/01/05 08:05:07;;;;;;;;;;;10.00;99.90;;;;;;5134452;27;20006;-45
2023/01/05 08:07:34;;;;;;;;;;;10.00;99.90;;;;;;5129599;27;20011;-44
2023/01/05 08:15:28;;;;;;;;;;;10.00;99.90;;;;;;5110388;27;20421;-43
2023/01/05 08:17:53;;;;;;;;;;;10.10;99.90;;;;;;5125378;27;19920;-44
2023/01/05 08:20:19;;;;;;;;;;;10.00;99.90;;;;;;5119542;27;19914;-43
2023/01/05 08:22:48;;;;;;;;;;;10.10;99.90;;;;;;5123208;27;19915;-44
2023/01/05 08:25:14;;;;;;;;;;;10.10;99.90;;;;;;5124727;27;19912;-43
2023/01/05 08:27:39;;;;;;;;;;;10.10;99.90;;;;;;5114308;27;19972;-44
2023/01/05 08:30:05;;;;;;;;;;;10.10;99.90;;;;;;5125442;27;19907;-44
2023/01/05 08:32:31;;;;;;;;;;;10.10;99.90;;;;;;5114248;28;19916;-44
2023/01/05 08:34:56;;;;;;;;;;;10.10;99.90;;;;;;5132896;27;19912;-44
2023/01/05 08:37:22;;;;;;;;;;;10.10;99.90;;;;;;5134628;27;19907;-45
2023/01/05 08:39:47;;;;;;;;;;;10.10;99.90;;;;;;5134667;27;19907;-43
2023/01/05 08:42:13;;;;;;;;;;;10.10;99.90;;;;;;5133453;27;20396;-44
2023/01/05 08:44:38;;;;;;;;;;;10.10;99.90;;;;;;5133609;27;19919;-42
2023/01/05 08:47:04;;;;;;;;;;;10.10;99.90;;;;;;5133893;27;20314;-43
2023/01/05 08:49:29;;;;;;;;;;;10.20;99.90;;;;;;5133752;27;19908;-43
2023/01/05 08:51:54;;;;;;;;;;;10.20;99.90;;;;;;5134494;27;19915;-43
2023/01/05 08:54:20;;;;;;;;;;;10.20;99.90;;;;;;5132150;27;20388;-44
2023/01/05 08:56:49;;;;;;;;;;;10.10;99.90;;;;;;5134481;27;20002;-42
2023/01/05 08:59:15;;;;;;;;;;;10.20;99.90;;;;;;5134199;27;19914;-42
2023/01/05 09:01:40;;;;;;;;;;;10.20;99.90;;;;;;5133508;27;20273;-44
2023/01/05 09:04:05;;;;;;;;;;;10.20;99.90;;;;;;5129812;27;19912;-41
2023/01/05 09:06:31;;;;;;;;;;;10.20;99.90;;;;;;5127093;27;19915;-42
2023/01/05 09:08:56;;;;;;;;;;;10.20;99.90;;;;;;5133049;27;20289;-45
2023/01/05 09:11:24;;;;;;;;;;;10.20;99.90;;;;;;5134003;27;19997;-44
2023/01/05 09:13:52;;;;;;;;;;;10.20;99.90;;;;;;5133892;27;19911;-45
2023/01/05 09:16:19;;;;;;;;;;;10.20;99.90;;;;;;5132750;27;20281;-42
2023/01/05 09:18:45;;;;;;;;;;;10.20;99.90;;;;;;5131639;27;19918;-44
2023/01/05 09:21:11;;;;;;;;;;;10.20;99.90;;;;;;5133763;27;19908;-43
2023/01/05 09:23:37;;;;;;;;;;;10.20;99.90;;;;;;5133096;27;19908;-43
2023/01/05 09:26:06;;;;;;;;;;;10.20;99.90;;;;;;5133170;27;19996;-43
2023/01/05 09:28:34;;;;;;;;;;;10.20;99.90;;;;;;5122091;27;19923;-43
2023/01/05 09:31:04;;;;;;;;;;;10.20;99.90;;;;;;5112480;28;19908;-42
2023/01/05 09:33:30;;;;;;;;;;;10.30;99.90;;;;;;5132366;27;19911;-42
2023/01/05 09:35:55;;;;;;;;;;;10.20;99.90;;;;;;5133765;27;19930;-45
2023/01/05 09:38:22;;;;;;;;;;;10.20;99.90;;;;;;5132850;27;19961;-45
2023/01/05 09:40:50;;;;;;;;;;;10.30;99.90;;;;;;5133530;27;19947;-46
2023/01/05 09:43:24;;;;;;;;;;;10.20;99.90;;;;;;5133599;28;19911;-46
2023/01/05 09:45:50;;;;;;;;;;;10.30;99.90;;;;;;5132925;28;20408;-42
2023/01/05 09:48:16;;;;;;;;;;;10.30;99.90;;;;;;5127540;28;19951;-42
2023/01/05 09:50:42;;;;;;;;;;;10.30;99.90;;;;;;5130934;28;19918;-42
2023/01/05 09:53:08;;;;;;;;;;;10.40;99.90;;;;;;5133097;28;19919;-44
2023/01/05 09:55:35;;;;;;;;;;;10.30;99.90;;;;;;5132858;27;20354;-44
2023/01/05 09:58:20;;;;;;;;;;;10.40;99.90;;;;;;5136624;27;19934;-45
2023/01/05 10:01:13;;;;;;;;;;;10.40;99.90;;;;;;5136184;27;19917;-43
2023/01/05 10:03:58;;;;;;;;;;;10.40;99.90;;;;;;5121368;27;19971;-46
2023/01/05 10:06:25;;;;;;;;;;;10.40;99.90;;;;;;5137054;27;19908;-45
2023/01/05 10:08:52;;;;;;;;;;;10.40;99.90;;;;;;5138037;27;19916;-42
2023/01/05 10:14:15;;;;;;;;;;;10.40;99.90;;;;;;5137151;27;19993;-42
2023/01/05 10:16:42;;;;;;;;;;;10.50;99.90;;;;;;5136722;27;19912;-42
2023/01/05 10:19:12;;;;;;;;;;;10.50;99.90;;;;;;5130856;27;19912;-43
2023/01/05 10:21:47;;;;;;;;;;;10.50;99.90;;;;;;5136020;27;20280;-43
2023/01/05 10:24:23;;;;;;;;;;;10.50;99.90;;;;;;5136976;27;20002;-42
2023/01/05 10:26:52;;;;;;;;;;;10.40;99.90;;;;;;5136204;27;19943;-43
2023/01/05 10:29:22;;;;;;;;;;;10.40;99.90;;;;;;5136458;27;19924;-43
2023/01/05 10:31:55;;;;;;;;;;;10.40;99.90;;;;;;5136648;27;20052;-43
2023/01/05 10:34:39;;;;;;;;;;;10.40;99.90;;;;;;5131366;27;19914;-42
2023/01/05 10:37:18;;;;;;;;;;;10.50;99.90;;;;;;5135885;27;20455;-42
2023/01/05 10:39:53;;;;;;;;;;;10.50;99.90;;;;;;5129560;27;19915;-46
2023/01/05 10:42:38;;;;;;;;;;;10.50;99.90;;;;;;5116477;27;20347;-43
2023/01/05 10:45:08;;;;;;;;;;;10.50;99.90;;;;;;5134677;27;19920;-43
2023/01/05 10:47:35;;;;;;;;;;;10.50;99.90;;;;;;5135851;27;19915;-45
2023/01/05 10:50:01;;;;;;;;;;;10.50;99.90;;;;;;5136229;27;19911;-42
2023/01/05 10:52:27;;;;;;;;;;;10.50;99.90;;;;;;5136364;27;19914;-43
2023/01/05 10:54:55;;;;;;;;;;;10.50;99.90;;;;;;5136206;27;19911;-44
2023/01/05 10:57:27;;;;;;;;;;;10.50;99.90;;;;;;5136629;27;19911;-41
2023/01/05 10:59:57;;;;;;;;;;;10.50;99.90;;;;;;5135675;27;19918;-42
2023/01/05 11:02:23;;;;;;;;;;;10.60;99.90;;;;;;5136078;27;19911;-43
2023/01/05 11:04:50;;;;;;;;;;;10.60;99.90;;;;;;5135904;27;19967;-46
2023/01/05 11:07:15;;;;;;;;;;;10.60;99.90;;;;;;5135486;27;20564;-41
2023/01/05 11:09:42;;;;;;;;;;;10.60;99.90;;;;;;5135695;27;19998;-42
2023/01/05 11:12:14;;;;;;;;;;;10.60;99.90;;;;;;5136073;27;20267;-44
2023/01/05 11:14:42;;;;;;;;;;;10.60;99.90;;;;;;5134988;27;19931;-43
2023/01/05 11:17:13;;;;;;;;;;;10.60;99.90;;;;;;5134048;27;19912;-43
2023/01/05 11:19:46;;;;;;;;;;;10.60;99.90;;;;;;5134349;27;19953;-44
2023/01/05 11:22:29;;;;;;;;;;;10.60;99.90;;;;;;5133921;27;19916;-43
2023/01/05 11:25:11;;;;;;;;;;;10.60;99.90;;;;;;5133460;27;19911;-44
2023/01/05 11:27:37;;;;;;;;;;;10.60;99.90;;;;;;5114078;28;20371;-41
2023/01/05 11:30:11;;;;;;;;;;;10.60;99.90;;;;;;5131001;27;19958;-43
2023/01/05 11:32:39;;;;;;;;;;;10.60;99.90;;;;;;5132816;27;19911;-41
2023/01/05 11:35:15;;;;;;;;;;;10.60;99.90;;;;;;5129219;27;19923;-43
2023/01/05 11:37:43;;;;;;;;;;;10.70;99.90;;;;;;5135245;27;19914;-42
2023/01/05 11:40:14;;;;;;;;;;;10.60;99.90;;;;;;5135385;27;19907;-42
2023/01/05 11:42:42;;;;;;;;;;;10.60;99.90;;;;;;5135456;27;19951;-44
2023/01/05 11:45:20;;;;;;;;;;;10.60;99.90;;;;;;5134352;27;20378;-42
2023/01/05 11:47:47;;;;;;;;;;;10.60;99.90;;;;;;5131716;27;19963;-42
2023/01/05 11:50:12;;;;;;;;;;;10.60;99.90;;;;;;5126523;27;19994;-43
2023/01/05 11:52:39;;;;;;;;;;;10.60;99.90;;;;;;5134814;27;20003;-42
2023/01/05 11:55:32;;;;;;;;;;;10.70;99.90;;;;;;5134852;27;19915;-45
2023/01/05 11:58:09;;;;;;;;;;;10.70;99.90;;;;;;5125557;27;19912;-43
2023/01/05 12:00:44;;;;;;;;;;;10.70;99.90;;;;;;5134971;27;19912;-43
2023/01/05 12:03:28;;;;;;;;;;;10.70;99.90;;;;;;5135195;27;19919;-43
2023/01/05 12:05:56;;;;;;;;;;;10.70;99.90;;;;;;5134079;27;19943;-45
2023/01/05 12:08:34;;;;;;;;;;;10.60;99.90;;;;;;5134563;27;20322;-46
2023/01/05 12:11:08;;;;;;;;;;;10.60;99.90;;;;;;5134718;27;19911;-43
2023/01/05 12:13:53;;;;;;;;;;;10.60;99.90;;;;;;5134465;27;19907;-46
2023/01/05 12:16:33;;;;;;;;;;;10.60;99.90;;;;;;5119133;27;19919;-42
2023/01/05 12:19:11;;;;;;;;;;;10.60;99.90;;;;;;5113235;28;19936;-43
2023/01/05 12:21:40;;;;;;;;;;;10.60;99.90;;;;;;5132705;27;19912;-41
2023/01/05 12:24:24;;;;;;;;;;;10.60;99.90;;;;;;5134311;27;19908;-42
2023/01/05 12:26:58;;;;;;;;;;;10.60;99.90;;;;;;5121957;27;19915;-43
2023/01/05 12:29:32;;;;;;;;;;;10.60;99.90;;;;;;5126020;27;20414;-43
2023/01/05 12:32:10;;;;;;;;;;;10.50;99.90;;;;;;5125904;27;19915;-43
2023/01/05 12:34:35;;;;;;;;;;;10.50;99.90;;;;;;5134111;27;19907;-43
2023/01/05 12:37:19;;;;;;;;;;;10.40;99.90;;;;;;5127853;27;19956;-41
2023/01/05 12:39:54;;;;;;;;;;;10.40;99.90;;;;;;5121813;27;19911;-44
2023/01/05 12:42:38;;;;;;;;;;;10.30;99.90;;;;;;5116649;27;19917;-42
2023/01/05 12:45:06;;;;;;;;;;;10.30;99.90;;;;;;5127883;27;19912;-43
2023/01/05 12:47:50;;;;;;;;;;;10.30;99.90;;;;;;5121612;27;19915;-43
2023/01/05 12:50:34;;;;;;;;;;;10.30;99.90;;;;;;5124745;27;19919;-41
2023/01/05 12:53:29;;;;;;;;;;;10.30;99.90;;;;;;5115139;27;19923;-42
2023/01/05 12:55:56;;;;;;;;;;;10.40;99.90;;;;;;5106919;27;19907;-42
2023/01/05 12:58:24;;;;;;;;;;;10.40;99.90;;;;;;5119528;27;19912;-43
2023/01/05 13:00:51;;;;;;;;;;;10.40;99.90;;;;;;5125105;27;19923;-42
2023/01/05 13:03:32;;;;;;;;;;;10.40;99.90;;;;;;5127681;27;19965;-42
2023/01/05 13:06:07;;;;;;;;;;;10.40;99.90;;;;;;5123844;27;19911;-43
2023/01/05 13:08:37;;;;;;;;;;;10.40;99.90;;;;;;5123935;27;19974;-42
2023/01/05 13:11:11;;;;;;;;;;;10.50;99.90;;;;;;5120801;27;19915;-43
2023/01/05 13:13:38;;;;;;;;;;;10.50;99.90;;;;;;5125463;27;19998;-42
2023/01/05 13:16:17;;;;;;;;;;;10.50;99.90;;;;;;5133760;27;19908;-41
2023/01/05 13:18:49;;;;;;;;;;;10.50;99.90;;;;;;5134982;27;20013;-43
2023/01/05 13:21:15;;;;;;;;;;;10.50;99.90;;;;;;5124224;27;19915;-44
2023/01/05 13:23:46;;;;;;;;;;;10.50;99.90;;;;;;5124490;27;19912;-42
2023/01/05 13:26:16;;;;;;;;;;;10.50;99.90;;;;;;5132799;27;19953;-43
2023/01/05 13:28:41;;;;;;;;;;;10.50;99.90;;;;;;5133746;27;19998;-43
2023/01/05 13:31:10;;;;;;;;;;;10.50;99.90;;;;;;5134063;27;20373;-42
2023/01/05 13:33:54;;;;;;;;;;;10.50;99.90;;;;;;5134135;27;19967;-42
2023/01/05 13:36:20;;;;;;;;;;;10.50;99.90;;;;;;5132550;27;19912;-44
2023/01/05 13:38:55;;;;;;;;;;;10.50;99.90;;;;;;5134372;27;19913;-42
2023/01/05 13:41:24;;;;;;;;;;;10.50;99.90;;;;;;5133368;27;19919;-43
2023/01/05 13:43:49;;;;;;;;;;;10.50;99.90;;;;;;5125020;28;19911;-43
2023/01/05 13:46:25;;;;;;;;;;;10.50;99.90;;;;;;5131897;28;19927;-45
2023/01/05 13:49:11;;;;;;;;;;;10.50;99.90;;;;;;5124583;28;19920;-45
2023/01/05 13:51:55;;;;;;;;;;;10.50;99.90;;;;;;5125750;28;20110;-42
2023/01/05 13:54:32;;;;;;;;;;;10.50;99.90;;;;;;5133366;28;20429;-43
2023/01/05 13:56:58;;;;;;;;;;;10.50;99.90;;;;;;5133781;28;19947;-43
2023/01/05 13:59:28;;;;;;;;;;;10.50;99.90;;;;;;5133709;28;19994;-43
2023/01/05 14:01:55;;;;;;;;;;;10.50;99.90;;;;;;5132643;28;19915;-44
2023/01/05 14:04:22;;;;;;;;;;;10.50;99.90;;;;;;5133458;28;20426;-43
2023/01/05 14:06:49;;;;;;;;;;;10.50;99.90;;;;;;5134158;28;19907;-44
2023/01/05 14:09:15;;;;;;;;;;;10.50;99.90;;;;;;5130682;28;20370;-43
2023/01/05 14:11:59;;;;;;;;;;;10.40;99.90;;;;;;5129284;28;19908;-43
2023/01/05 14:14:26;;;;;;;;;;;10.50;99.90;;;;;;5118688;28;19912;-44
2023/01/05 14:16:52;;;;;;;;;;;10.40;99.90;;;;;;5112421;28;19912;-43
2023/01/05 14:19:36;;;;;;;;;;;10.40;99.90;;;;;;5114984;28;20346;-43
2023/01/05 14:22:01;;;;;;;;;;;10.40;99.90;;;;;;5133187;28;19991;-42
2023/01/05 14:24:32;;;;;;;;;;;10.40;99.90;;;;;;5133190;28;19951;-43
2023/01/05 14:27:08;;;;;;;;;;;10.40;99.90;;;;;;5132613;28;19967;-42
2023/01/05 14:29:42;;;;;;;;;;;10.40;99.90;;;;;;5131078;28;20384;-42
2023/01/05 14:32:09;;;;;;;;;;;10.40;99.90;;;;;;5132331;28;19911;-42
2023/01/05 14:34:35;;;;;;;;;;;10.40;99.90;;;;;;5133181;28;19907;-44
2023/01/05 14:37:02;;;;;;;;;;;10.50;99.90;;;;;;5132559;28;19915;-44
2023/01/05 14:39:29;;;;;;;;;;;10.40;99.90;;;;;;5123339;28;19919;-43
2023/01/05 14:41:55;;;;;;;;;;;10.40;99.90;;;;;;5134665;27;19907;-41
2023/01/05 14:44:22;;;;;;;;;;;10.50;99.90;;;;;;5135846;27;19994;-42
2023/01/05 14:46:51;;;;;;;;;;;10.50;99.90;;;;;;5135003;27;19952;-42
2023/01/05 14:49:19;;;;;;;;;;;10.50;99.90;;;;;;5135061;27;19919;-41
2023/01/05 14:52:11;;;;;;;;;;;10.50;99.90;;;;;;5135805;27;19918;-44
2023/01/05 14:54:40;;;;;;;;;;;10.50;99.90;;;;;;5111174;28;19920;-43
2023/01/05 14:57:20;;;;;;;;;;;10.50;99.90;;;;;;5119578;27;19950;-41
2023/01/05 14:59:47;;;;;;;;;;;10.50;99.90;;;;;;5119208;27;19911;-42
2023/01/05 15:02:17;;;;;;;;;;;10.50;99.90;;;;;;5103735;27;19934;-42
2023/01/05 15:04:43;;;;;;;;;;;10.50;99.90;;;;;;5118754;27;19962;-41
2023/01/05 15:07:27;;;;;;;;;;;10.50;99.90;;;;;;5117717;27;19974;-42